Swan Station, North Carolina
Current Conditions -  °F | °C
As of 6:55 AM on Thursday 27 Nov 2014 (Local Time) from KTTA Reporting Station
Haze Haze  
Wind Chill: 40°   Ceiling: 300
Heat Index: 40°   Visibility: 5mi
Dew Point: 40°   Wind: 0mph
Humidity: 100%   Direction: NA
Pressure: 30"   Gusts: NA
Location:  35.493°N, 79.1765°W
Report Text: KTTA 271155Z AUTO 00000KT 5SM BR OVC003 05/05 A3000 RMK AO2 T00470047 10048 20030
Loading
Personal Weather Stations






























Interactive Weather Map New forecast layout! Learn more

10-Day Weather Forecast

Advertisements
Track Severe Weather on mobile